Capulin, Colorado
Current Conditions -  °F | °C
As of 10:52 PM on Saturday 20 Dec 2014 (Local Time) from KALS Reporting Station
Clear Clear  
Wind Chill:   Ceiling: Unl
Heat Index: 16°   Visibility: 10mi
Dew Point: 11°   Wind: 6mph
Humidity: 81%   Direction: 70°ENE
Pressure: 30.02"   Gusts: NA
Location:  37.28°N, 106.11°W
Report Text: KALS 210552Z AUTO 07005KT 10SM CLR M09/M12 A3002 RMK AO2 SLP204 T10891117 11028 21089 58002
Loading
Personal Weather Stations






























Interactive Weather Map New forecast layout! Learn more

10-Day Weather Forecast

Advertisements
Track Severe Weather on mobile